createdAt,value
2017-03-06T00:02:18.124Z,274.1
2017-03-06T00:13:18.841Z,274.1
2017-03-06T00:24:18.524Z,273.3
2017-03-06T00:35:17.984Z,273.5
2017-03-06T00:46:18.026Z,275.8
2017-03-06T00:57:18.374Z,274.3
2017-03-06T01:08:17.800Z,273.6
2017-03-06T01:19:18.135Z,274
2017-03-06T01:30:19.548Z,273.8
2017-03-06T01:41:18.973Z,272.9
2017-03-06T01:52:18.208Z,273.8
2017-03-06T02:03:18.726Z,273
2017-03-06T02:14:18.525Z,273.2
2017-03-06T02:25:17.819Z,273.7
2017-03-06T02:36:18.038Z,272.9
2017-03-06T02:47:17.917Z,273.3
2017-03-06T02:58:18.583Z,275
2017-03-06T03:09:18.813Z,275.5
2017-03-06T03:20:19.555Z,273.8
2017-03-06T03:31:18.530Z,273.9
2017-03-06T03:42:18.918Z,274
2017-03-06T03:53:18.562Z,274.4
2017-03-06T04:04:18.481Z,273.3
2017-03-06T04:15:17.618Z,274.3
2017-03-06T04:26:18.718Z,272.4
2017-03-06T04:37:18.211Z,272.4
2017-03-06T04:48:18.470Z,273
2017-03-06T04:59:18.435Z,273.3
2017-03-06T05:10:17.957Z,271.7
2017-03-06T05:21:18.453Z,273.6
2017-03-06T05:32:18.060Z,274.9
2017-03-06T05:43:18.775Z,274.5
2017-03-06T05:54:18.093Z,274.3
2017-03-06T06:05:18.805Z,274.4
2017-03-06T06:16:18.670Z,274.7
2017-03-06T06:27:18.033Z,274.8
2017-03-06T06:38:18.558Z,274.5
2017-03-06T06:49:18.753Z,274.4
2017-03-06T07:00:17.989Z,274.6
2017-03-06T07:11:17.853Z,274.5
2017-03-06T07:22:17.804Z,274.8
2017-03-06T07:33:18.207Z,274.9
2017-03-06T07:44:18.185Z,274.3
2017-03-06T07:55:18.198Z,274.7
2017-03-06T08:06:18.006Z,275.5
2017-03-06T08:17:19.095Z,274.2
2017-03-06T08:28:18.661Z,274.5
2017-03-06T08:39:18.054Z,274.5
2017-03-06T08:50:18.747Z,274.8
2017-03-06T09:01:17.609Z,274.5
2017-03-06T09:12:17.883Z,275.1
2017-03-06T09:23:18.666Z,275.1
2017-03-06T09:34:17.867Z,274.6
2017-03-06T09:45:17.810Z,274.3
2017-03-06T09:56:18.082Z,274.1
2017-03-06T10:07:18.982Z,273
2017-03-06T10:18:18.495Z,273.2
2017-03-06T10:29:18.615Z,273.6
2017-03-06T10:40:19.134Z,271.9
2017-03-06T10:51:18.987Z,273.3
2017-03-06T11:02:17.590Z,272.1
2017-03-06T11:13:18.395Z,275.1
2017-03-06T11:24:18.612Z,273.7
2017-03-06T11:35:17.930Z,274.3
2017-03-06T11:46:18.850Z,275
2017-03-06T11:57:18.370Z,272.6
2017-03-06T12:08:18.810Z,272.9
2017-03-06T12:19:18.493Z,271.9
2017-03-06T12:30:18.867Z,273.2
2017-03-06T12:41:18.465Z,271.5
2017-03-06T12:52:18.663Z,270.6
2017-03-06T13:03:18.555Z,273.9
2017-03-06T13:14:18.963Z,271.8
2017-03-06T13:25:18.259Z,272.8
2017-03-06T13:36:18.601Z,272.9
2017-03-06T13:47:18.600Z,271.8
2017-03-06T13:58:18.415Z,271.5
2017-03-06T14:09:18.640Z,271.1
2017-03-06T14:20:18.028Z,267
2017-03-06T14:31:19.379Z,264.7
2017-03-06T14:42:17.903Z,263.6
2017-03-06T14:53:18.343Z,265.4
2017-03-06T15:04:18.266Z,254.4
2017-03-06T15:15:18.209Z,256.3
2017-03-06T15:26:18.211Z,264.9
2017-03-06T15:37:18.160Z,256.6
2017-03-06T15:48:18.213Z,263.6
2017-03-06T15:59:17.676Z,254.1
2017-03-06T16:10:18.255Z,266.5
2017-03-06T16:21:18.297Z,259.5
2017-03-06T16:32:17.204Z,260.1
2017-03-06T16:43:18.825Z,267
2017-03-06T16:54:18.503Z,260.6
2017-03-06T17:05:17.233Z,262.1
2017-03-06T17:16:18.940Z,267.2
2017-03-06T17:27:17.823Z,267.6
2017-03-06T17:38:18.485Z,269.7
2017-03-06T17:49:18.906Z,255.7
2017-03-06T18:00:18.482Z,266.2
2017-03-06T18:11:18.132Z,263.8
2017-03-06T18:22:18.500Z,263.3
2017-03-06T18:33:17.967Z,259.6
2017-03-06T18:44:18.713Z,250.8
2017-03-06T18:55:18.461Z,269.7
2017-03-06T19:06:17.889Z,284.8
2017-03-06T19:17:18.036Z,257.7
2017-03-06T19:28:18.319Z,262.7
2017-03-06T19:39:18.194Z,264.9
2017-03-06T19:50:18.448Z,258.7
2017-03-06T20:01:18.388Z,264.4
2017-03-06T20:12:19.036Z,261.9
2017-03-06T20:23:18.242Z,260.1
2017-03-06T20:34:18.405Z,271.3
2017-03-06T20:45:17.862Z,270
2017-03-06T20:56:18.195Z,270.8
2017-03-06T21:07:17.789Z,271.5
2017-03-06T21:18:18.723Z,264.2
2017-03-06T21:29:18.114Z,268.2
2017-03-06T21:40:19.407Z,260
2017-03-06T21:51:18.764Z,259.4
2017-03-06T22:02:18.660Z,268.2
2017-03-06T22:13:18.861Z,268.2
2017-03-06T22:24:18.739Z,268.8
2017-03-06T22:35:18.313Z,266.6
2017-03-06T22:46:18.031Z,265.8
2017-03-06T22:57:17.551Z,266.4
2017-03-06T23:08:18.783Z,268.3
2017-03-06T23:19:18.005Z,267.8
2017-03-06T23:30:18.637Z,257.7
2017-03-06T23:41:17.468Z,271.9
2017-03-06T23:52:17.953Z,258.9
